createdAt,value
2022-08-19T00:00:02.005Z,992.22
2022-08-19T00:01:01.995Z,992.15
2022-08-19T00:02:01.979Z,992.17
2022-08-19T00:03:01.965Z,992.16
2022-08-19T00:04:01.951Z,992.17
2022-08-19T00:05:01.993Z,992.12
2022-08-19T00:06:01.924Z,992.16
2022-08-19T00:07:01.912Z,992.16
2022-08-19T00:08:01.898Z,992.22
2022-08-19T00:09:01.884Z,992.23
2022-08-19T00:10:01.869Z,992.27
2022-08-19T00:11:01.857Z,992.27
2022-08-19T00:12:01.843Z,992.24
2022-08-19T00:13:01.830Z,992.23
2022-08-19T00:14:01.816Z,992.22
2022-08-19T00:15:01.803Z,992.15
2022-08-19T00:16:01.792Z,992.12
2022-08-19T00:17:01.782Z,992.16
2022-08-19T00:18:01.762Z,992.17
2022-08-19T00:19:01.751Z,992.13
2022-08-19T00:20:01.737Z,992.16
2022-08-19T00:21:01.724Z,992.15
2022-08-19T00:22:01.711Z,992.19
2022-08-19T00:23:01.698Z,992.17
2022-08-19T00:24:01.683Z,992.16
2022-08-19T00:25:02.204Z,992.21
2022-08-19T00:26:01.657Z,992.24
2022-08-19T00:27:25.669Z,992.24
2022-08-19T00:28:01.631Z,992.24
2022-08-19T00:29:01.620Z,992.29
2022-08-19T00:30:01.603Z,992.26
2022-08-19T00:31:01.592Z,992.35
2022-08-19T00:32:01.579Z,992.35
2022-08-19T00:33:01.566Z,992.34
2022-08-19T00:34:01.571Z,992.34
2022-08-19T00:35:01.541Z,992.33
2022-08-19T00:36:01.529Z,992.35
2022-08-19T00:37:01.514Z,992.27
2022-08-19T00:38:01.499Z,992.28
2022-08-19T00:39:01.493Z,992.24
2022-08-19T00:40:01.563Z,992.27
2022-08-19T00:41:01.461Z,992.20
2022-08-19T00:42:01.446Z,992.25
2022-08-19T00:43:01.440Z,992.21
2022-08-19T00:44:01.418Z,992.21
2022-08-19T00:45:01.407Z,992.27
2022-08-19T00:46:01.395Z,992.30
2022-08-19T00:47:01.384Z,992.25
2022-08-19T00:48:01.365Z,992.28
2022-08-19T00:49:01.353Z,992.28
2022-08-19T00:50:01.339Z,992.25
2022-08-19T00:51:01.325Z,992.24
2022-08-19T00:52:01.311Z,992.20
2022-08-19T00:53:01.298Z,992.22
2022-08-19T00:54:01.283Z,992.19
2022-08-19T00:55:01.272Z,992.16
2022-08-19T00:56:01.257Z,992.18
2022-08-19T00:57:01.244Z,992.13
2022-08-19T00:58:01.230Z,992.13
2022-08-19T00:59:01.217Z,992.16
2022-08-19T01:00:03.052Z,992.17
2022-08-19T01:01:01.190Z,992.17
2022-08-19T01:02:01.175Z,992.13
2022-08-19T01:03:01.163Z,992.10
2022-08-19T01:04:01.148Z,992.15
2022-08-19T01:05:01.136Z,992.12
2022-08-19T01:06:01.128Z,992.04
2022-08-19T01:07:01.108Z,992.17
2022-08-19T01:08:01.094Z,992.14
2022-08-19T01:09:01.081Z,992.13
2022-08-19T01:10:01.067Z,992.12
2022-08-19T01:11:01.057Z,992.07
2022-08-19T01:12:01.041Z,992.14
2022-08-19T01:13:01.031Z,992.12
2022-08-19T01:14:01.012Z,992.08
2022-08-19T01:15:01.002Z,992.06
2022-08-19T01:16:00.986Z,992.06
2022-08-19T01:17:00.973Z,992.06
2022-08-19T01:18:00.959Z,992.02
2022-08-19T01:19:00.947Z,991.99
2022-08-19T01:20:00.933Z,991.98
2022-08-19T01:21:00.919Z,991.99
2022-08-19T01:22:00.905Z,991.91
2022-08-19T01:23:02.892Z,991.90
2022-08-19T01:24:00.878Z,991.91
2022-08-19T01:25:00.866Z,991.96
2022-08-19T01:26:00.851Z,991.94
2022-08-19T01:27:00.838Z,991.89
2022-08-19T01:28:10.974Z,991.97
2022-08-19T01:29:05.246Z,991.92
2022-08-19T01:30:00.797Z,991.88
2022-08-19T01:31:00.807Z,991.91
2022-08-19T01:32:00.771Z,991.85
2022-08-19T01:33:00.758Z,991.82
2022-08-19T01:34:00.744Z,991.83
2022-08-19T01:35:00.732Z,991.79
2022-08-19T01:36:00.716Z,991.79
2022-08-19T01:37:00.704Z,991.77
2022-08-19T01:38:00.689Z,991.78
2022-08-19T01:39:00.677Z,991.74
2022-08-19T01:40:00.705Z,991.78
2022-08-19T01:41:00.649Z,991.69
2022-08-19T01:42:00.635Z,991.74
2022-08-19T01:43:00.633Z,991.69
2022-08-19T01:44:16.950Z,991.78
2022-08-19T01:45:00.595Z,991.71
2022-08-19T01:46:00.580Z,991.72
2022-08-19T01:47:00.568Z,991.68
2022-08-19T01:48:01.736Z,991.75
2022-08-19T01:49:00.540Z,991.71
2022-08-19T01:50:00.528Z,991.72
2022-08-19T01:51:00.515Z,991.68
2022-08-19T01:52:00.502Z,991.69
2022-08-19T01:53:03.633Z,991.72
2022-08-19T01:54:00.473Z,991.67
2022-08-19T01:55:00.461Z,991.66
2022-08-19T01:56:00.446Z,991.63
2022-08-19T01:57:00.433Z,991.64
2022-08-19T01:58:00.419Z,991.58
2022-08-19T01:59:00.406Z,991.56
2022-08-19T02:00:00.392Z,991.53
2022-08-19T02:01:00.436Z,991.51
2022-08-19T02:02:00.366Z,991.60
2022-08-19T02:03:00.354Z,991.65
2022-08-19T02:04:00.339Z,991.60
2022-08-19T02:05:00.337Z,991.64
2022-08-19T02:06:00.313Z,991.77
2022-08-19T02:07:00.301Z,991.79
2022-08-19T02:08:00.289Z,991.78
2022-08-19T02:09:00.277Z,991.79
2022-08-19T02:10:00.260Z,991.78
2022-08-19T02:11:00.248Z,991.79
2022-08-19T02:12:00.234Z,991.79
2022-08-19T02:13:00.226Z,991.84
2022-08-19T02:14:00.211Z,991.77
2022-08-19T02:15:00.207Z,991.73
2022-08-19T02:16:00.184Z,991.70
2022-08-19T02:17:00.171Z,991.76
2022-08-19T02:18:00.161Z,991.73
2022-08-19T02:19:00.146Z,991.74
2022-08-19T02:20:00.162Z,991.78
2022-08-19T02:21:00.123Z,991.74
2022-08-19T02:22:00.107Z,991.81
2022-08-19T02:23:00.096Z,991.81
2022-08-19T02:24:00.082Z,991.88
2022-08-19T02:25:00.073Z,991.86
2022-08-19T02:26:00.057Z,991.86
2022-08-19T02:27:00.050Z,991.89
2022-08-19T02:28:00.030Z,991.92
2022-08-19T02:29:00.120Z,991.96
2022-08-19T02:30:00.006Z,991.86
2022-08-19T02:30:59.993Z,991.92
2022-08-19T02:31:59.980Z,991.83
2022-08-19T02:32:59.977Z,991.78
2022-08-19T02:33:59.954Z,991.75
2022-08-19T02:34:59.942Z,991.74
2022-08-19T02:35:59.931Z,991.72
2022-08-19T02:37:03.629Z,991.74
2022-08-19T02:37:59.905Z,991.74
2022-08-19T02:38:59.890Z,991.77
2022-08-19T02:39:59.937Z,991.79
2022-08-19T02:40:59.862Z,991.80
2022-08-19T02:41:59.851Z,991.81
2022-08-19T02:42:59.836Z,991.91
2022-08-19T02:44:30.313Z,991.96
2022-08-19T02:44:59.813Z,991.95
2022-08-19T02:45:59.799Z,991.91
2022-08-19T02:46:59.788Z,991.91
2022-08-19T02:47:59.777Z,991.95
2022-08-19T02:48:59.763Z,991.90
2022-08-19T02:49:59.750Z,991.91
2022-08-19T02:50:59.736Z,991.90
2022-08-19T02:51:59.724Z,991.91
2022-08-19T02:52:59.710Z,991.94
2022-08-19T02:53:59.723Z,992.00
2022-08-19T02:54:59.686Z,991.96
2022-08-19T02:55:59.674Z,991.97
2022-08-19T02:56:59.662Z,991.90
2022-08-19T02:57:59.649Z,991.92
2022-08-19T02:58:59.635Z,991.98
2022-08-19T02:59:59.627Z,991.97
2022-08-19T03:00:59.778Z,991.95
2022-08-19T03:01:59.598Z,991.95
2022-08-19T03:02:59.585Z,991.96
2022-08-19T03:03:59.574Z,991.98
2022-08-19T03:04:59.561Z,991.99
2022-08-19T03:05:59.551Z,992.01
2022-08-19T03:07:10.449Z,992.04
2022-08-19T03:07:59.523Z,992.00
2022-08-19T03:08:59.509Z,992.06
2022-08-19T03:09:59.498Z,992.07
2022-08-19T03:10:59.485Z,992.14
2022-08-19T03:11:59.476Z,992.17
2022-08-19T03:12:59.459Z,992.20
2022-08-19T03:13:59.448Z,992.21
2022-08-19T03:14:59.434Z,992.20
2022-08-19T03:15:59.422Z,992.23
2022-08-19T03:16:59.409Z,992.16
2022-08-19T03:17:59.397Z,992.22
2022-08-19T03:18:59.384Z,992.22
2022-08-19T03:19:59.372Z,992.25
2022-08-19T03:20:59.357Z,992.24
2022-08-19T03:22:59.333Z,992.23
2022-08-19T03:23:59.325Z,992.21
2022-08-19T03:24:59.307Z,992.23
2022-08-19T03:26:15.958Z,992.28
2022-08-19T03:26:59.282Z,992.25
2022-08-19T03:27:59.272Z,992.22
2022-08-19T03:28:59.257Z,992.19
2022-08-19T03:29:59.246Z,992.19
2022-08-19T03:30:59.233Z,992.19
2022-08-19T03:31:59.223Z,992.22
2022-08-19T03:32:59.308Z,992.17
2022-08-19T03:33:59.201Z,992.26
2022-08-19T03:34:59.183Z,992.19
2022-08-19T03:35:59.171Z,992.17
2022-08-19T03:36:59.159Z,992.19
2022-08-19T03:37:59.149Z,992.17
2022-08-19T03:38:59.926Z,992.13
2022-08-19T03:39:59.172Z,992.18
2022-08-19T03:40:59.108Z,992.13
2022-08-19T03:42:31.751Z,992.17
2022-08-19T03:42:59.137Z,992.17
2022-08-19T03:43:59.076Z,992.17
2022-08-19T03:44:59.062Z,992.11
2022-08-19T03:45:59.048Z,992.16
2022-08-19T03:46:59.035Z,992.22
2022-08-19T03:47:59.021Z,992.15
2022-08-19T03:48:59.007Z,992.22
2022-08-19T03:49:58.997Z,992.18
2022-08-19T03:50:58.983Z,992.15
2022-08-19T03:51:58.971Z,992.14
2022-08-19T03:52:58.958Z,992.15
2022-08-19T03:53:58.946Z,992.17
2022-08-19T03:54:58.933Z,992.15
2022-08-19T03:55:58.921Z,992.16
2022-08-19T03:56:58.908Z,992.20
2022-08-19T03:57:59.344Z,992.15
2022-08-19T03:58:58.881Z,992.15
2022-08-19T04:00:04.020Z,992.17
2022-08-19T04:00:58.885Z,992.19
2022-08-19T04:01:58.843Z,992.20
2022-08-19T04:03:00.588Z,992.27
2022-08-19T04:03:58.817Z,992.23
2022-08-19T04:04:58.803Z,992.19
2022-08-19T04:05:58.791Z,992.27
2022-08-19T04:06:58.775Z,992.23
2022-08-19T04:07:58.765Z,992.26
2022-08-19T04:08:58.750Z,992.30
2022-08-19T04:09:58.739Z,992.28
2022-08-19T04:10:58.725Z,992.27
2022-08-19T04:11:58.717Z,992.25
2022-08-19T04:12:58.698Z,992.29
2022-08-19T04:13:58.688Z,992.32
2022-08-19T04:14:58.672Z,992.36
2022-08-19T04:15:58.660Z,992.35
2022-08-19T04:16:58.646Z,992.35
2022-08-19T04:17:58.634Z,992.31
2022-08-19T04:18:58.621Z,992.39
2022-08-19T04:19:58.609Z,992.37
2022-08-19T04:20:58.593Z,992.34
2022-08-19T04:21:58.582Z,992.37
2022-08-19T04:22:58.568Z,992.42
2022-08-19T04:23:58.559Z,992.40
2022-08-19T04:24:58.542Z,992.44
2022-08-19T04:25:58.531Z,992.45
2022-08-19T04:26:58.517Z,992.47
2022-08-19T04:27:58.505Z,992.50
2022-08-19T04:28:58.490Z,992.48
2022-08-19T04:29:58.488Z,992.48
2022-08-19T04:30:58.464Z,992.50
2022-08-19T04:31:58.457Z,992.49
2022-08-19T04:32:58.437Z,992.60
2022-08-19T04:33:58.426Z,992.52
2022-08-19T04:35:01.203Z,992.51
2022-08-19T04:35:58.399Z,992.49
2022-08-19T04:36:58.386Z,992.44
2022-08-19T04:37:58.375Z,992.44
2022-08-19T04:38:58.360Z,992.47
2022-08-19T04:39:58.849Z,992.42
2022-08-19T04:40:58.333Z,992.40
2022-08-19T04:41:58.322Z,992.44
2022-08-19T04:42:58.308Z,992.35
2022-08-19T04:44:02.459Z,992.39
2022-08-19T04:44:58.281Z,992.40
2022-08-19T04:46:01.086Z,992.39
2022-08-19T04:46:58.255Z,992.46
2022-08-19T04:48:26.802Z,992.45
2022-08-19T04:48:58.229Z,992.39
2022-08-19T04:49:58.217Z,992.46
2022-08-19T04:50:58.203Z,992.45
2022-08-19T04:51:58.191Z,992.40
2022-08-19T04:52:58.178Z,992.37
2022-08-19T04:53:58.165Z,992.36
2022-08-19T04:54:58.151Z,992.40
2022-08-19T04:55:58.265Z,992.37
2022-08-19T04:56:58.125Z,992.37
2022-08-19T04:57:58.112Z,992.42
2022-08-19T04:58:58.098Z,992.40
2022-08-19T04:59:58.087Z,992.46
2022-08-19T05:00:58.117Z,992.47
2022-08-19T05:01:58.060Z,992.46
2022-08-19T05:02:58.046Z,992.47
2022-08-19T05:03:58.035Z,992.49
2022-08-19T05:04:58.021Z,992.49
2022-08-19T05:05:58.008Z,992.47
2022-08-19T05:07:00.922Z,992.50
2022-08-19T05:07:57.982Z,992.55
2022-08-19T05:08:57.968Z,992.53
2022-08-19T05:09:59.199Z,992.47
2022-08-19T05:10:57.944Z,992.49
2022-08-19T05:11:57.931Z,992.49
2022-08-19T05:12:57.915Z,992.50
2022-08-19T05:13:57.908Z,992.50
2022-08-19T05:14:58.303Z,992.55
2022-08-19T05:15:57.878Z,992.53
2022-08-19T05:17:25.592Z,992.57
2022-08-19T05:17:57.853Z,992.55
2022-08-19T05:18:57.839Z,992.60
2022-08-19T05:19:57.827Z,992.62
2022-08-19T05:20:57.813Z,992.63
2022-08-19T05:21:57.800Z,992.66
2022-08-19T05:22:57.786Z,992.66
2022-08-19T05:23:57.775Z,992.65
2022-08-19T05:25:12.261Z,992.67
2022-08-19T05:25:57.748Z,992.70
2022-08-19T05:26:57.734Z,992.66
2022-08-19T05:27:57.722Z,992.59
2022-08-19T05:28:57.708Z,992.68
2022-08-19T05:29:57.702Z,992.62
2022-08-19T05:30:57.683Z,992.63
2022-08-19T05:31:57.671Z,992.65
2022-08-19T05:32:57.658Z,992.61
2022-08-19T05:33:57.647Z,992.62
2022-08-19T05:34:57.635Z,992.64
2022-08-19T05:35:57.621Z,992.66
2022-08-19T05:36:57.607Z,992.67
2022-08-19T05:37:59.103Z,992.68
2022-08-19T05:38:57.581Z,992.75
2022-08-19T05:39:57.626Z,992.67
2022-08-19T05:40:57.557Z,992.67
2022-08-19T05:41:57.545Z,992.71
2022-08-19T05:42:57.530Z,992.70
2022-08-19T05:43:57.519Z,992.67
2022-08-19T05:44:57.507Z,992.69
2022-08-19T05:45:57.493Z,992.61
2022-08-19T05:46:57.479Z,992.63
2022-08-19T05:47:57.466Z,992.59
2022-08-19T05:48:57.554Z,992.62
2022-08-19T05:50:57.425Z,992.56
2022-08-19T05:51:57.412Z,992.51
2022-08-19T05:52:57.713Z,992.50
2022-08-19T05:53:57.386Z,992.55
2022-08-19T05:54:57.425Z,992.51
2022-08-19T05:55:57.361Z,992.55
2022-08-19T05:56:57.348Z,992.54
2022-08-19T05:57:57.378Z,992.56
2022-08-19T05:58:57.336Z,992.52
2022-08-19T05:59:58.247Z,992.47
2022-08-19T06:00:57.321Z,992.56
2022-08-19T06:01:57.304Z,992.61
2022-08-19T06:02:57.339Z,992.58
2022-08-19T06:03:57.266Z,992.62
2022-08-19T06:04:57.245Z,992.59
2022-08-19T06:05:57.233Z,992.64
2022-08-19T06:06:57.220Z,992.68
2022-08-19T06:07:57.208Z,992.63
2022-08-19T06:08:57.194Z,992.66
2022-08-19T06:10:00.976Z,992.72
2022-08-19T06:10:57.168Z,992.68
2022-08-19T06:11:57.156Z,992.66
2022-08-19T06:12:57.142Z,992.65
2022-08-19T06:13:59.425Z,992.65
2022-08-19T06:15:01.275Z,992.68
2022-08-19T06:15:57.106Z,992.67
2022-08-19T06:16:57.091Z,992.66
2022-08-19T06:17:57.079Z,992.68
2022-08-19T06:18:57.066Z,992.70
2022-08-19T06:19:57.054Z,992.72
2022-08-19T06:20:57.093Z,992.79
2022-08-19T06:21:57.040Z,992.81
2022-08-19T06:22:57.014Z,992.85
2022-08-19T06:23:57.003Z,992.87
2022-08-19T06:24:56.990Z,992.90
2022-08-19T06:25:56.976Z,992.88
2022-08-19T06:27:00.783Z,992.91
2022-08-19T06:28:14.745Z,992.94
2022-08-19T06:28:58.938Z,992.92
2022-08-19T06:29:56.925Z,992.91
2022-08-19T06:30:56.911Z,992.86
2022-08-19T06:31:56.899Z,992.91
2022-08-19T06:32:56.887Z,992.91
2022-08-19T06:33:56.874Z,992.97
2022-08-19T06:34:56.868Z,992.95
2022-08-19T06:35:56.850Z,992.93
2022-08-19T06:36:56.836Z,992.97
2022-08-19T06:37:57.090Z,992.96
2022-08-19T06:38:56.817Z,992.98
2022-08-19T06:39:56.861Z,992.97
2022-08-19T06:40:56.782Z,993.03
2022-08-19T06:41:58.649Z,993.07
2022-08-19T06:42:57.273Z,993.09
2022-08-19T06:43:56.746Z,993.15
2022-08-19T06:44:56.767Z,993.09
2022-08-19T06:45:56.726Z,993.14
2022-08-19T06:46:56.709Z,993.09
2022-08-19T06:47:56.752Z,993.14
2022-08-19T06:48:56.680Z,993.14
2022-08-19T06:50:01.010Z,993.12
2022-08-19T06:50:56.654Z,993.09
2022-08-19T06:51:56.643Z,993.11
2022-08-19T06:52:56.774Z,993.11
2022-08-19T06:53:56.619Z,993.09
2022-08-19T06:54:56.944Z,993.13
2022-08-19T06:55:56.593Z,993.14
2022-08-19T06:56:56.582Z,993.13
2022-08-19T06:57:56.567Z,993.17
2022-08-19T06:58:56.555Z,993.19
2022-08-19T06:59:56.545Z,993.14
2022-08-19T07:00:56.530Z,993.19
2022-08-19T07:01:56.515Z,993.19
2022-08-19T07:03:00.870Z,993.18
2022-08-19T07:03:57.505Z,993.22
2022-08-19T07:04:56.482Z,993.24
2022-08-19T07:05:56.465Z,993.28
2022-08-19T07:06:56.453Z,993.21
2022-08-19T07:07:57.513Z,993.21
2022-08-19T07:08:56.429Z,993.19
2022-08-19T07:10:00.350Z,993.21
2022-08-19T07:10:56.403Z,993.20
2022-08-19T07:11:56.389Z,993.23
2022-08-19T07:12:56.378Z,993.21
2022-08-19T07:13:56.367Z,993.20
2022-08-19T07:14:56.362Z,993.27
2022-08-19T07:15:56.340Z,993.25
2022-08-19T07:16:56.330Z,993.20
2022-08-19T07:17:56.322Z,993.28
2022-08-19T07:18:56.306Z,993.28
2022-08-19T07:19:56.292Z,993.32
2022-08-19T07:20:56.281Z,993.34
2022-08-19T07:21:56.267Z,993.31
2022-08-19T07:23:56.243Z,993.33
2022-08-19T07:24:56.233Z,993.35
2022-08-19T07:25:56.286Z,993.34
2022-08-19T07:26:56.207Z,993.26
2022-08-19T07:27:56.495Z,993.35
2022-08-19T07:28:56.181Z,993.37
2022-08-19T07:29:57.532Z,993.31
2022-08-19T07:30:56.156Z,993.34
2022-08-19T07:31:56.146Z,993.34
2022-08-19T07:32:56.147Z,993.36
2022-08-19T07:33:56.124Z,993.31
2022-08-19T07:34:56.695Z,993.34
2022-08-19T07:35:56.096Z,993.35
2022-08-19T07:36:56.085Z,993.35
2022-08-19T07:37:56.094Z,993.35
2022-08-19T07:38:56.061Z,993.39
2022-08-19T07:39:56.116Z,993.35
2022-08-19T07:40:56.036Z,993.35
2022-08-19T07:41:56.023Z,993.39
2022-08-19T07:42:56.019Z,993.40
2022-08-19T07:43:56.004Z,993.44
2022-08-19T07:44:55.992Z,993.37
2022-08-19T07:45:56.012Z,993.45
2022-08-19T07:46:55.967Z,993.32
2022-08-19T07:47:55.955Z,993.44
2022-08-19T07:48:55.942Z,993.38
2022-08-19T07:49:55.922Z,993.33
2022-08-19T07:50:55.912Z,993.40
2022-08-19T07:51:55.900Z,993.40
2022-08-19T07:52:55.887Z,993.32
2022-08-19T07:53:55.875Z,993.28
2022-08-19T07:54:55.864Z,993.24
2022-08-19T07:55:55.853Z,993.30
2022-08-19T07:56:55.844Z,993.26
2022-08-19T07:57:55.829Z,993.27
2022-08-19T07:59:55.803Z,993.24
2022-08-19T08:00:55.792Z,993.30
2022-08-19T08:01:55.796Z,993.34
2022-08-19T08:02:56.304Z,993.29
2022-08-19T08:03:55.759Z,993.32
2022-08-19T08:04:55.750Z,993.29
2022-08-19T08:05:55.737Z,993.31
2022-08-19T08:06:55.726Z,993.23
2022-08-19T08:07:55.723Z,993.27
2022-08-19T08:08:55.700Z,993.27
2022-08-19T08:10:56.838Z,993.25
2022-08-19T08:11:55.663Z,993.17
2022-08-19T08:13:10.087Z,993.19
2022-08-19T08:14:00.881Z,993.23
2022-08-19T08:14:57.628Z,993.21
2022-08-19T08:15:56.076Z,993.18
2022-08-19T08:16:55.607Z,993.20
2022-08-19T08:17:55.595Z,993.16
2022-08-19T08:18:55.583Z,993.23
2022-08-19T08:19:55.573Z,993.22
2022-08-19T08:20:55.565Z,993.13
2022-08-19T08:21:55.552Z,993.10
2022-08-19T08:22:55.538Z,993.16
2022-08-19T08:23:56.195Z,993.09
2022-08-19T08:24:55.542Z,993.07
2022-08-19T08:25:55.508Z,993.07
2022-08-19T08:26:57.447Z,993.08
2022-08-19T08:27:55.632Z,993.10
2022-08-19T08:28:55.469Z,993.13
2022-08-19T08:29:55.456Z,993.14
2022-08-19T08:30:55.447Z,993.15
2022-08-19T08:31:58.449Z,993.14
2022-08-19T08:32:55.422Z,993.18
2022-08-19T08:33:55.408Z,993.16
2022-08-19T08:34:55.398Z,993.16
2022-08-19T08:35:55.385Z,993.21
2022-08-19T08:36:55.377Z,993.17
2022-08-19T08:37:55.691Z,993.19
2022-08-19T08:39:55.409Z,993.19
2022-08-19T08:40:55.330Z,993.26
2022-08-19T08:41:55.320Z,993.25
2022-08-19T08:42:55.362Z,993.27
2022-08-19T08:43:55.299Z,993.26
2022-08-19T08:45:55.274Z,993.21
2022-08-19T08:46:55.264Z,993.27
2022-08-19T08:47:55.279Z,993.24
2022-08-19T08:48:55.242Z,993.29
2022-08-19T08:49:55.230Z,993.29
2022-08-19T08:50:55.218Z,993.22
2022-08-19T08:51:56.220Z,993.17
2022-08-19T08:52:55.406Z,993.21
2022-08-19T08:53:56.018Z,993.22
2022-08-19T08:54:55.924Z,993.19
2022-08-19T08:55:55.155Z,993.18
2022-08-19T08:56:55.147Z,993.15
2022-08-19T08:57:55.240Z,993.17
2022-08-19T08:58:55.122Z,993.15
2022-08-19T08:59:55.111Z,993.19
2022-08-19T09:00:55.102Z,993.18
2022-08-19T09:01:55.200Z,993.15
2022-08-19T09:02:55.076Z,993.15
2022-08-19T09:03:55.063Z,993.19
2022-08-19T09:04:55.048Z,993.11
2022-08-19T09:05:55.034Z,993.19
2022-08-19T09:06:55.026Z,993.17
2022-08-19T09:07:55.231Z,993.10
2022-08-19T09:08:56.979Z,993.09
2022-08-19T09:09:56.144Z,993.14
2022-08-19T09:10:55.582Z,993.17
2022-08-19T09:11:54.966Z,993.14
2022-08-19T09:12:54.957Z,993.07
2022-08-19T09:13:54.947Z,993.17
2022-08-19T09:14:54.934Z,993.12
2022-08-19T09:15:54.924Z,993.14
2022-08-19T09:16:54.911Z,993.16
2022-08-19T09:17:55.077Z,993.14
2022-08-19T09:18:54.890Z,993.12
2022-08-19T09:19:54.876Z,993.06
2022-08-19T09:20:54.866Z,993.07
2022-08-19T09:21:54.855Z,993.02
2022-08-19T09:22:54.843Z,993.08
2022-08-19T09:23:54.830Z,993.01
2022-08-19T09:24:54.820Z,993.12
2022-08-19T09:25:54.814Z,993.05
2022-08-19T09:26:54.795Z,993.05
2022-08-19T09:27:55.407Z,993.06
2022-08-19T09:28:54.773Z,993.02
2022-08-19T09:29:54.757Z,993.04
2022-08-19T09:30:54.748Z,993.05
2022-08-19T09:31:54.735Z,993.12
2022-08-19T09:32:54.723Z,993.07
2022-08-19T09:33:54.710Z,993.16
2022-08-19T09:34:54.700Z,993.09
2022-08-19T09:35:54.688Z,993.09
2022-08-19T09:36:54.953Z,993.04
2022-08-19T09:37:57.394Z,992.99
2022-08-19T09:38:54.655Z,992.96
2022-08-19T09:39:54.681Z,993.00
2022-08-19T09:40:54.633Z,992.97
2022-08-19T09:41:54.620Z,992.88
2022-08-19T09:42:54.612Z,992.91
2022-08-19T09:43:54.597Z,992.97
2022-08-19T09:44:54.587Z,993.00
2022-08-19T09:45:54.575Z,993.00
2022-08-19T09:46:54.565Z,992.91
2022-08-19T09:47:55.113Z,992.94
2022-08-19T09:48:54.543Z,992.96
2022-08-19T09:49:54.528Z,992.85
2022-08-19T09:50:54.518Z,992.73
2022-08-19T09:51:54.507Z,992.82
2022-08-19T09:52:57.345Z,992.73
2022-08-19T09:53:54.487Z,992.82
2022-08-19T09:54:54.474Z,992.82
2022-08-19T09:55:54.459Z,992.87
2022-08-19T09:56:54.459Z,992.86
2022-08-19T09:57:54.665Z,992.79
2022-08-19T09:58:54.424Z,992.84
2022-08-19T09:59:54.417Z,992.77
2022-08-19T10:00:54.413Z,992.73
2022-08-19T10:01:54.385Z,992.73
2022-08-19T10:02:54.382Z,992.77
2022-08-19T10:03:54.362Z,992.71
2022-08-19T10:04:54.351Z,992.61
2022-08-19T10:05:55.364Z,992.77
2022-08-19T10:06:55.448Z,992.79
2022-08-19T10:07:54.602Z,992.75
2022-08-19T10:08:54.300Z,992.80
2022-08-19T10:09:54.286Z,992.79
2022-08-19T10:10:54.275Z,992.68
2022-08-19T10:11:54.693Z,992.72
2022-08-19T10:12:54.252Z,992.67
2022-08-19T10:13:54.239Z,992.83
2022-08-19T10:14:54.230Z,992.71
2022-08-19T10:15:54.216Z,992.55
2022-08-19T10:16:54.205Z,992.63
2022-08-19T10:17:54.971Z,992.64
2022-08-19T10:18:58.762Z,992.71
2022-08-19T10:19:55.908Z,992.75
2022-08-19T10:20:54.159Z,992.75
2022-08-19T10:21:54.147Z,992.81
2022-08-19T10:22:54.138Z,992.70
2022-08-19T10:23:54.125Z,992.61
2022-08-19T10:24:54.125Z,992.54
2022-08-19T10:25:54.103Z,992.58
2022-08-19T10:26:55.951Z,992.58
2022-08-19T10:27:55.863Z,992.58
2022-08-19T10:28:54.069Z,992.69
2022-08-19T10:29:54.055Z,992.73
2022-08-19T10:30:54.044Z,992.65
2022-08-19T10:32:00.948Z,992.73
2022-08-19T10:32:54.022Z,992.70
2022-08-19T10:33:54.307Z,992.65
2022-08-19T10:34:57.253Z,992.60
2022-08-19T10:35:56.990Z,992.72
2022-08-19T10:37:00.429Z,992.53
2022-08-19T10:37:57.384Z,992.71
2022-08-19T10:38:56.825Z,992.64
2022-08-19T10:39:53.997Z,992.67
2022-08-19T10:40:53.928Z,992.62
2022-08-19T10:41:53.913Z,992.65
2022-08-19T10:42:53.902Z,992.58
2022-08-19T10:43:53.889Z,992.59
2022-08-19T10:44:53.880Z,992.43
2022-08-19T10:45:53.867Z,992.52
2022-08-19T10:46:53.857Z,992.51
2022-08-19T10:47:53.960Z,992.47
2022-08-19T10:48:53.836Z,992.37
2022-08-19T10:49:53.822Z,992.35
2022-08-19T10:50:53.812Z,992.54
2022-08-19T10:51:53.800Z,992.53
2022-08-19T10:52:53.789Z,992.38
2022-08-19T10:53:53.776Z,992.34
2022-08-19T10:54:53.766Z,992.26
2022-08-19T10:55:53.753Z,992.30
2022-08-19T10:56:53.756Z,992.53
2022-08-19T10:58:03.891Z,992.52
2022-08-19T10:58:53.723Z,992.55
2022-08-19T10:59:53.709Z,992.54
2022-08-19T11:00:53.728Z,992.52
2022-08-19T11:01:53.685Z,992.56
2022-08-19T11:02:53.679Z,992.47
2022-08-19T11:03:53.664Z,992.48
2022-08-19T11:04:53.654Z,992.54
2022-08-19T11:05:53.639Z,992.44
2022-08-19T11:06:53.631Z,992.44
2022-08-19T11:07:53.883Z,992.42
2022-08-19T11:08:53.609Z,992.36
2022-08-19T11:09:53.598Z,992.33
2022-08-19T11:10:53.585Z,992.34
2022-08-19T11:11:53.575Z,992.10
2022-08-19T11:12:53.563Z,992.31
2022-08-19T11:13:53.554Z,992.24
2022-08-19T11:14:53.549Z,992.20
2022-08-19T11:15:53.533Z,992.21
2022-08-19T11:16:53.521Z,992.19
2022-08-19T11:17:53.699Z,992.18
2022-08-19T11:18:53.502Z,992.24
2022-08-19T11:19:53.489Z,992.32
2022-08-19T11:20:53.477Z,992.31
2022-08-19T11:21:53.468Z,992.26
2022-08-19T11:22:53.456Z,992.22
2022-08-19T11:24:53.437Z,992.22
2022-08-19T11:25:53.427Z,992.07
2022-08-19T11:26:53.415Z,992.11
2022-08-19T11:27:53.623Z,992.24
2022-08-19T11:28:53.397Z,992.01
2022-08-19T11:29:53.384Z,992.05
2022-08-19T11:30:53.373Z,992.17
2022-08-19T11:31:53.362Z,992.19
2022-08-19T11:32:53.348Z,992.16
2022-08-19T11:33:53.338Z,992.25
2022-08-19T11:34:53.325Z,992.22
2022-08-19T11:35:53.315Z,992.19
2022-08-19T11:36:53.304Z,992.24
2022-08-19T11:37:53.558Z,992.20
2022-08-19T11:38:53.280Z,992.13
2022-08-19T11:39:53.282Z,992.13
2022-08-19T11:40:53.257Z,992.17
2022-08-19T11:41:53.247Z,992.10
2022-08-19T11:42:53.235Z,992.00
2022-08-19T11:43:53.225Z,991.95
2022-08-19T11:44:53.213Z,991.94
2022-08-19T11:45:53.203Z,991.99
2022-08-19T11:46:53.193Z,992.01
2022-08-19T11:47:53.403Z,992.22
2022-08-19T11:48:53.167Z,992.24
2022-08-19T11:49:53.157Z,992.25
2022-08-19T11:50:53.145Z,992.16
2022-08-19T11:51:53.807Z,992.12
2022-08-19T11:52:53.123Z,992.16
2022-08-19T11:53:53.111Z,992.19
2022-08-19T11:54:53.100Z,992.12
2022-08-19T11:55:53.098Z,992.12
2022-08-19T11:56:53.077Z,992.04
2022-08-19T11:57:53.250Z,991.98
2022-08-19T11:58:53.054Z,991.93
2022-08-19T11:59:53.044Z,991.96
2022-08-19T12:00:53.033Z,992.00
2022-08-19T12:01:53.023Z,991.96
2022-08-19T12:02:53.015Z,991.96
2022-08-19T12:03:53.080Z,991.98
2022-08-19T12:04:52.983Z,992.04
2022-08-19T12:05:52.973Z,992.08
2022-08-19T12:06:52.960Z,991.86
2022-08-19T12:07:53.079Z,991.86
2022-08-19T12:08:52.934Z,992.06
2022-08-19T12:09:52.924Z,992.01
2022-08-19T12:10:52.910Z,991.94
2022-08-19T12:11:52.900Z,991.92
2022-08-19T12:12:55.802Z,991.87
2022-08-19T12:13:52.875Z,991.77
2022-08-19T12:14:52.863Z,991.86
2022-08-19T12:15:52.853Z,991.92
2022-08-19T12:16:52.840Z,991.91
2022-08-19T12:17:53.044Z,991.82
2022-08-19T12:18:52.818Z,991.88
2022-08-19T12:19:52.808Z,991.81
2022-08-19T12:20:52.793Z,991.81
2022-08-19T12:21:52.783Z,991.79
2022-08-19T12:22:52.772Z,991.78
2022-08-19T12:23:55.789Z,991.84
2022-08-19T12:24:52.748Z,991.76
2022-08-19T12:25:52.920Z,991.74
2022-08-19T12:26:53.655Z,991.73
2022-08-19T12:27:57.349Z,991.73
2022-08-19T12:28:52.703Z,991.71
2022-08-19T12:29:52.692Z,991.69
2022-08-19T12:30:52.681Z,991.69
2022-08-19T12:31:52.678Z,991.60
2022-08-19T12:32:52.657Z,991.70
2022-08-19T12:33:52.646Z,991.63
2022-08-19T12:34:52.635Z,991.61
2022-08-19T12:35:52.625Z,991.67